createdAt,value
2019-05-06T00:01:34.084Z,96.90
2019-05-06T00:04:04.664Z,96.80
2019-05-06T00:06:34.653Z,96.80
2019-05-06T00:09:04.688Z,96.70
2019-05-06T00:11:34.587Z,96.60
2019-05-06T00:14:04.080Z,96.60
2019-05-06T00:16:34.687Z,96.70
2019-05-06T00:19:04.882Z,97.00
2019-05-06T00:21:35.578Z,97.10
2019-05-06T00:24:04.281Z,97.20
2019-05-06T00:26:50.653Z,97.30
2019-05-06T00:29:20.809Z,96.90
2019-05-06T00:31:49.352Z,96.80
2019-05-06T00:34:17.811Z,96.80
2019-05-06T00:36:46.319Z,97.30
2019-05-06T00:39:33.545Z,97.50
2019-05-06T00:42:06.181Z,97.20
2019-05-06T00:44:34.738Z,97.50
2019-05-06T00:47:04.352Z,97.50
2019-05-06T00:49:34.432Z,97.40
2019-05-06T00:52:04.234Z,97.90
2019-05-06T00:54:34.053Z,97.40
2019-05-06T00:57:03.616Z,97.70
2019-05-06T00:59:34.420Z,97.90
2019-05-06T01:02:04.454Z,98.00
2019-05-06T01:04:33.857Z,97.70
2019-05-06T01:07:03.928Z,97.80
2019-05-06T01:09:34.928Z,98.20
2019-05-06T01:12:05.099Z,98.40
2019-05-06T01:14:35.316Z,98.50
2019-05-06T01:17:04.040Z,98.60
2019-05-06T01:19:34.194Z,98.50
2019-05-06T01:22:04.559Z,98.40
2019-05-06T01:24:34.498Z,98.20
2019-05-06T01:27:04.001Z,98.40
2019-05-06T01:29:34.734Z,98.60
2019-05-06T01:32:03.669Z,98.20
2019-05-06T01:34:33.966Z,98.40
2019-05-06T01:37:03.674Z,98.60
2019-05-06T01:39:39.805Z,98.40
2019-05-06T01:42:09.970Z,98.30
2019-05-06T01:44:38.444Z,98.30
2019-05-06T01:47:06.910Z,98.30
2019-05-06T01:49:35.500Z,98.50
2019-05-06T01:52:04.366Z,98.70
2019-05-06T01:54:34.345Z,99.30
2019-05-06T01:57:04.517Z,99.30
2019-05-06T01:59:34.097Z,99.40
2019-05-06T02:02:04.318Z,99.40
2019-05-06T02:04:33.738Z,99.30
2019-05-06T02:07:03.806Z,99.50
2019-05-06T02:09:34.201Z,99.60
2019-05-06T02:12:04.570Z,99.30
2019-05-06T02:14:34.113Z,99.10
2019-05-06T02:17:03.649Z,99.00
2019-05-06T02:19:34.529Z,98.90
2019-05-06T02:22:09.811Z,99.20
2019-05-06T02:24:43.962Z,99.30
2019-05-06T02:27:13.975Z,99.30
2019-05-06T02:29:44.387Z,99.50
2019-05-06T02:32:31.848Z,99.50
2019-05-06T02:35:05.131Z,99.50
2019-05-06T02:37:37.667Z,99.50
2019-05-06T02:40:24.287Z,99.60
2019-05-06T02:42:54.699Z,99.80
2019-05-06T02:45:23.877Z,99.90
2019-05-06T02:47:53.964Z,99.90
2019-05-06T02:50:30.035Z,99.80
2019-05-06T02:52:58.554Z,99.90
2019-05-06T02:55:27.092Z,99.90
2019-05-06T02:57:55.543Z,99.90
2019-05-06T03:00:24.113Z,99.80
2019-05-06T03:02:54.094Z,99.90
2019-05-06T03:05:23.738Z,99.60
2019-05-06T03:07:57.130Z,99.50
2019-05-06T03:10:24.738Z,99.30
2019-05-06T03:12:53.779Z,99.30
2019-05-06T03:15:24.038Z,99.70
2019-05-06T03:17:55.377Z,99.60
2019-05-06T03:21:03.949Z,99.90
2019-05-06T03:23:35.984Z,99.80
2019-05-06T03:26:06.896Z,99.70
2019-05-06T03:28:35.539Z,99.30
2019-05-06T03:31:07.012Z,99.40
2019-05-06T03:33:54.297Z,99.80
2019-05-06T03:36:14.219Z,99.10
2019-05-06T03:38:34.661Z,99.00
2019-05-06T03:41:03.365Z,99.40
2019-05-06T03:43:33.869Z,99.90
2019-05-06T03:46:22.939Z,99.90
2019-05-06T03:48:53.057Z,99.90
2019-05-06T03:51:23.327Z,99.90
2019-05-06T03:53:54.329Z,99.90
2019-05-06T03:56:24.018Z,99.90
2019-05-06T03:58:54.030Z,99.90
2019-05-06T04:01:24.014Z,99.90
2019-05-06T04:03:56.918Z,99.70
2019-05-06T04:06:24.151Z,99.10
2019-05-06T04:08:53.586Z,98.90
2019-05-06T04:11:23.744Z,98.80
2019-05-06T04:13:53.946Z,98.50
2019-05-06T04:16:24.313Z,98.90
2019-05-06T04:18:54.785Z,99.20
2019-05-06T04:21:43.676Z,99.50
2019-05-06T04:24:22.739Z,99.80
2019-05-06T04:26:53.340Z,99.60
2019-05-06T04:29:24.072Z,99.70
2019-05-06T04:31:54.050Z,99.80
2019-05-06T04:34:23.353Z,99.90
2019-05-06T04:36:53.312Z,99.40
2019-05-06T04:39:23.454Z,99.20
2019-05-06T04:41:53.904Z,99.60
2019-05-06T04:44:23.796Z,99.80
2019-05-06T04:46:54.432Z,99.70
2019-05-06T04:49:23.805Z,99.50
2019-05-06T04:51:54.090Z,99.70
2019-05-06T04:54:26.155Z,99.90
2019-05-06T04:56:53.878Z,99.90
2019-05-06T04:59:23.278Z,99.90
2019-05-06T05:01:53.572Z,99.90
2019-05-06T05:04:31.142Z,99.90
2019-05-06T05:06:52.794Z,99.90
2019-05-06T05:09:23.100Z,99.90
2019-05-06T05:11:59.496Z,99.70
2019-05-06T05:14:45.710Z,99.20
2019-05-06T05:17:16.481Z,99.30
2019-05-06T05:19:45.136Z,99.40
2019-05-06T05:22:13.755Z,98.70
2019-05-06T05:24:42.596Z,98.10
2019-05-06T05:27:12.539Z,98.00
2019-05-06T05:29:42.364Z,97.40
2019-05-06T05:32:12.788Z,95.90
2019-05-06T05:34:43.445Z,96.10
2019-05-06T05:37:12.175Z,97.10
2019-05-06T05:39:42.625Z,96.60
2019-05-06T05:42:13.102Z,96.00
2019-05-06T05:44:43.811Z,96.40
2019-05-06T05:47:12.474Z,95.40
2019-05-06T05:49:42.674Z,94.70
2019-05-06T05:52:12.687Z,94.20
2019-05-06T05:54:42.352Z,93.80
2019-05-06T05:57:11.893Z,93.40
2019-05-06T05:59:42.171Z,91.70
2019-05-06T06:02:12.824Z,91.20
2019-05-06T06:04:53.761Z,90.80
2019-05-06T06:07:12.155Z,92.20
2019-05-06T06:09:42.507Z,89.90
2019-05-06T06:12:12.070Z,90.70
2019-05-06T06:14:43.708Z,87.00
2019-05-06T06:17:32.658Z,87.90
2019-05-06T06:20:02.929Z,86.20
2019-05-06T06:22:33.072Z,81.40
2019-05-06T06:25:04.243Z,81.30
2019-05-06T06:27:33.592Z,77.90
2019-05-06T06:30:02.493Z,77.50
2019-05-06T06:32:32.551Z,74.90
2019-05-06T06:35:10.615Z,70.40
2019-05-06T06:37:46.874Z,67.70
2019-05-06T06:40:18.014Z,64.40
2019-05-06T06:42:48.566Z,66.00
2019-05-06T06:45:17.146Z,67.60
2019-05-06T06:47:45.871Z,70.20
2019-05-06T06:50:14.570Z,71.00
2019-05-06T06:52:43.472Z,70.80
2019-05-06T06:55:12.962Z,70.70
2019-05-06T06:57:59.932Z,70.40
2019-05-06T07:00:46.589Z,69.00
2019-05-06T07:03:19.402Z,67.50
2019-05-06T07:05:52.826Z,65.90
2019-05-06T07:08:33.905Z,61.50
2019-05-06T07:10:52.535Z,60.90
2019-05-06T07:13:23.208Z,59.70
2019-05-06T07:15:52.104Z,58.50
2019-05-06T07:18:22.584Z,58.90
2019-05-06T07:20:58.774Z,59.70
2019-05-06T07:23:28.876Z,61.30
2019-05-06T07:25:57.729Z,58.60
2019-05-06T07:28:26.370Z,59.70
2019-05-06T07:30:55.549Z,59.80
2019-05-06T07:33:24.220Z,60.40
2019-05-06T07:35:53.247Z,58.10
2019-05-06T07:38:23.346Z,59.60
2019-05-06T07:40:53.878Z,59.60
2019-05-06T07:43:42.063Z,61.60
2019-05-06T07:46:24.178Z,64.00
2019-05-06T07:48:52.619Z,62.20
2019-05-06T07:51:21.085Z,62.40
2019-05-06T07:53:49.612Z,61.60
2019-05-06T07:56:18.098Z,58.80
2019-05-06T07:58:46.563Z,60.90
2019-05-06T08:01:15.105Z,62.00
2019-05-06T08:03:43.571Z,62.80
2019-05-06T08:06:13.176Z,60.10
2019-05-06T08:08:43.285Z,60.10
2019-05-06T08:11:12.544Z,60.60
2019-05-06T08:13:43.199Z,59.80
2019-05-06T08:16:13.095Z,59.30
2019-05-06T08:18:42.542Z,57.90
2019-05-06T08:21:15.678Z,55.10
2019-05-06T08:23:45.851Z,56.50
2019-05-06T08:26:17.485Z,57.90
2019-05-06T08:28:44.780Z,58.60
2019-05-06T08:31:13.594Z,58.10
2019-05-06T08:33:43.195Z,55.30
2019-05-06T08:36:14.983Z,53.80
2019-05-06T08:38:56.571Z,54.10
2019-05-06T08:41:25.786Z,54.90
2019-05-06T08:43:54.514Z,53.30
2019-05-06T08:46:23.671Z,51.60
2019-05-06T08:48:52.704Z,51.00
2019-05-06T08:51:25.495Z,52.10
2019-05-06T08:53:55.671Z,52.90
2019-05-06T08:56:24.210Z,53.70
2019-05-06T08:58:53.048Z,54.80
2019-05-06T09:01:23.468Z,56.60
2019-05-06T09:04:06.430Z,57.30
2019-05-06T09:06:27.521Z,55.90
2019-05-06T09:08:52.302Z,55.50
2019-05-06T09:11:25.197Z,56.40
2019-05-06T09:13:52.125Z,57.20
2019-05-06T09:16:22.367Z,58.00
2019-05-06T09:18:53.130Z,57.80
2019-05-06T09:21:22.631Z,57.80
2019-05-06T09:23:53.141Z,56.20
2019-05-06T09:26:23.169Z,52.00
2019-05-06T09:28:59.198Z,50.30
2019-05-06T09:31:29.296Z,46.60
2019-05-06T09:34:05.667Z,46.10
2019-05-06T09:36:43.721Z,42.00
2019-05-06T09:39:07.064Z,43.70
2019-05-06T09:41:35.625Z,44.70
2019-05-06T09:44:04.189Z,45.70
2019-05-06T09:46:32.700Z,48.30
2019-05-06T09:49:03.423Z,50.10
2019-05-06T09:51:32.509Z,52.00
2019-05-06T09:54:05.636Z,53.40
2019-05-06T09:56:45.162Z,55.30
2019-05-06T09:59:13.627Z,54.70
2019-05-06T10:01:43.747Z,55.50
2019-05-06T10:04:13.085Z,55.70
2019-05-06T10:06:55.653Z,55.60
2019-05-06T10:09:15.699Z,55.40
2019-05-06T10:11:42.751Z,53.10
2019-05-06T10:14:12.850Z,53.20
2019-05-06T10:16:43.309Z,50.60
2019-05-06T10:19:13.201Z,50.90
2019-05-06T10:21:42.723Z,51.80
2019-05-06T10:24:11.557Z,51.60
2019-05-06T10:26:44.117Z,51.60
2019-05-06T10:29:22.191Z,49.30
2019-05-06T10:31:58.047Z,45.50
2019-05-06T10:34:26.558Z,40.70
2019-05-06T10:37:15.387Z,41.30
2019-05-06T10:39:44.597Z,43.50
2019-05-06T10:42:16.133Z,45.20
2019-05-06T10:44:53.913Z,48.00
2019-05-06T10:47:22.677Z,49.10
2019-05-06T10:49:52.947Z,46.20
2019-05-06T10:52:23.167Z,47.60
2019-05-06T10:54:51.727Z,49.70
2019-05-06T10:57:32.647Z,48.50
2019-05-06T11:00:00.762Z,49.40
2019-05-06T11:02:46.047Z,48.10
2019-05-06T11:05:14.742Z,46.60
2019-05-06T11:07:43.248Z,46.50
2019-05-06T11:10:21.585Z,47.30
2019-05-06T11:12:43.085Z,49.70
2019-05-06T11:15:12.541Z,49.10
2019-05-06T11:17:43.413Z,49.30
2019-05-06T11:20:13.954Z,48.90
2019-05-06T11:22:43.596Z,47.00
2019-05-06T11:25:12.315Z,46.10
2019-05-06T11:27:42.565Z,45.50
2019-05-06T11:30:13.083Z,47.90
2019-05-06T11:32:44.379Z,40.80
2019-05-06T11:35:15.056Z,39.50
2019-05-06T11:37:50.193Z,39.20
2019-05-06T11:40:17.058Z,43.00
2019-05-06T11:42:45.773Z,42.60
2019-05-06T11:45:14.566Z,43.90
2019-05-06T11:47:43.029Z,43.90
2019-05-06T11:50:12.959Z,45.50
2019-05-06T11:52:43.284Z,44.50
2019-05-06T11:55:13.894Z,46.90
2019-05-06T11:57:44.584Z,48.60
2019-05-06T12:00:15.939Z,48.10
2019-05-06T12:02:48.266Z,48.00
2019-05-06T12:05:14.790Z,48.60
2019-05-06T12:07:48.076Z,47.20
2019-05-06T12:10:13.579Z,47.90
2019-05-06T12:12:42.617Z,46.60
2019-05-06T12:15:12.549Z,46.60
2019-05-06T12:17:45.704Z,47.40
2019-05-06T12:20:14.184Z,46.50
2019-05-06T12:22:42.662Z,46.30
2019-05-06T12:25:15.229Z,46.40
2019-05-06T12:27:44.844Z,47.20
2019-05-06T12:30:15.533Z,43.40
2019-05-06T12:32:45.648Z,42.90
2019-05-06T12:35:14.647Z,38.60
2019-05-06T12:37:44.817Z,41.20
2019-05-06T12:40:13.502Z,41.80
2019-05-06T12:42:49.318Z,42.70
2019-05-06T12:45:19.759Z,40.30
2019-05-06T12:47:55.702Z,38.70
2019-05-06T12:50:24.316Z,39.60
2019-05-06T12:52:52.938Z,39.70
2019-05-06T12:55:25.216Z,42.40
2019-05-06T12:57:53.333Z,42.90
2019-05-06T13:00:23.499Z,41.00
2019-05-06T13:02:53.128Z,38.90
2019-05-06T13:05:21.994Z,37.30
2019-05-06T13:07:52.546Z,36.50
2019-05-06T13:10:23.117Z,38.20
2019-05-06T13:12:54.159Z,39.20
2019-05-06T13:15:24.354Z,38.20
2019-05-06T13:17:53.281Z,38.20
2019-05-06T13:20:22.826Z,40.00
2019-05-06T13:23:20.166Z,40.20
2019-05-06T13:25:45.114Z,39.50
2019-05-06T13:28:13.079Z,39.70
2019-05-06T13:30:43.411Z,40.20
2019-05-06T13:33:30.190Z,39.70
2019-05-06T13:35:58.893Z,38.60
2019-05-06T13:38:27.421Z,35.90
2019-05-06T13:40:57.575Z,38.40
2019-05-06T13:43:27.963Z,38.10
2019-05-06T13:45:58.130Z,36.30
2019-05-06T13:48:37.192Z,36.60
2019-05-06T13:51:07.332Z,37.30
2019-05-06T13:53:39.626Z,37.80
2019-05-06T13:56:06.019Z,37.50
2019-05-06T13:58:34.569Z,36.50
2019-05-06T14:01:04.751Z,37.00
2019-05-06T14:03:33.199Z,40.00
2019-05-06T14:06:03.071Z,38.60
2019-05-06T14:08:34.862Z,39.50
2019-05-06T14:11:03.523Z,38.90
2019-05-06T14:13:32.801Z,38.20
2019-05-06T14:16:03.949Z,37.40
2019-05-06T14:18:33.287Z,37.30
2019-05-06T14:21:02.958Z,36.70
2019-05-06T14:23:32.759Z,37.00
2019-05-06T14:26:04.171Z,38.10
2019-05-06T14:28:37.558Z,38.90
2019-05-06T14:31:07.765Z,40.50
2019-05-06T14:33:36.285Z,40.20
2019-05-06T14:36:04.775Z,39.90
2019-05-06T14:38:33.417Z,38.20
2019-05-06T14:41:08.013Z,38.50
2019-05-06T14:43:36.176Z,40.30
2019-05-06T14:46:04.629Z,40.30
2019-05-06T14:48:33.281Z,39.90
2019-05-06T14:51:02.439Z,37.80
2019-05-06T14:53:33.014Z,38.60
2019-05-06T14:56:05.959Z,37.10
2019-05-06T14:58:34.443Z,38.50
2019-05-06T15:01:03.662Z,40.80
2019-05-06T15:03:32.672Z,40.00
2019-05-06T15:06:02.613Z,39.40
2019-05-06T15:08:32.264Z,39.80
2019-05-06T15:11:02.905Z,39.40
2019-05-06T15:13:32.192Z,40.20
2019-05-06T15:16:03.508Z,41.30
2019-05-06T15:18:32.130Z,39.70
2019-05-06T15:21:29.210Z,38.80
2019-05-06T15:23:31.259Z,40.00
2019-05-06T15:25:59.788Z,40.30
2019-05-06T15:28:28.283Z,39.00
2019-05-06T15:31:04.384Z,37.20
2019-05-06T15:33:37.370Z,38.30
2019-05-06T15:36:13.666Z,40.00
2019-05-06T15:38:42.186Z,39.40
2019-05-06T15:41:12.789Z,40.60
2019-05-06T15:43:40.849Z,41.10
2019-05-06T15:46:09.318Z,41.30
2019-05-06T15:48:37.873Z,40.00
2019-05-06T15:51:06.422Z,39.40
2019-05-06T15:53:35.019Z,40.30
2019-05-06T15:56:03.579Z,40.20
2019-05-06T15:58:32.864Z,40.30
2019-05-06T16:01:03.124Z,41.00
2019-05-06T16:03:33.439Z,37.50
2019-05-06T16:06:02.172Z,39.40
2019-05-06T16:08:32.073Z,38.20
2019-05-06T16:11:02.799Z,40.20
2019-05-06T16:13:31.085Z,40.40
2019-05-06T16:15:59.553Z,39.70
2019-05-06T16:18:28.059Z,38.60
2019-05-06T16:20:57.591Z,37.80
2019-05-06T16:23:27.883Z,37.20
2019-05-06T16:25:56.437Z,37.90
2019-05-06T16:28:24.893Z,38.60
2019-05-06T16:30:53.662Z,40.10
2019-05-06T16:33:22.279Z,40.40
2019-05-06T16:35:52.209Z,40.90
2019-05-06T16:38:23.058Z,41.20
2019-05-06T16:41:02.171Z,41.00
2019-05-06T16:43:22.164Z,40.90
2019-05-06T16:45:53.207Z,40.80
2019-05-06T16:48:22.621Z,39.50
2019-05-06T16:50:51.387Z,40.90
2019-05-06T16:53:19.893Z,41.60
2019-05-06T16:56:02.462Z,40.70
2019-05-06T16:58:35.100Z,37.90
2019-05-06T17:01:03.686Z,39.20
2019-05-06T17:03:33.970Z,40.80
2019-05-06T17:06:06.922Z,41.50
2019-05-06T17:08:36.625Z,40.90
2019-05-06T17:11:05.386Z,42.00
2019-05-06T17:13:37.440Z,41.40
2019-05-06T17:16:04.380Z,41.70
2019-05-06T17:18:33.141Z,42.00
2019-05-06T17:21:01.794Z,42.80
2019-05-06T17:23:32.379Z,42.40
2019-05-06T17:26:00.426Z,43.20
2019-05-06T17:28:33.599Z,43.90
2019-05-06T17:31:22.298Z,42.40
2019-05-06T17:33:52.064Z,42.80
2019-05-06T17:36:22.251Z,43.60
2019-05-06T17:38:52.598Z,44.20
2019-05-06T17:41:26.577Z,44.20
2019-05-06T17:43:53.335Z,44.20
2019-05-06T17:46:26.454Z,44.30
2019-05-06T17:48:56.615Z,44.30
2019-05-06T17:51:33.796Z,44.70
2019-05-06T17:54:03.919Z,45.90
2019-05-06T17:56:32.397Z,45.00
2019-05-06T17:59:03.016Z,45.20
2019-05-06T18:01:33.358Z,45.00
2019-05-06T18:04:02.291Z,45.30
2019-05-06T18:06:32.986Z,45.50
2019-05-06T18:09:02.558Z,45.40
2019-05-06T18:11:33.196Z,45.70
2019-05-06T18:14:03.845Z,46.40
2019-05-06T18:16:33.486Z,46.50
2019-05-06T18:19:03.117Z,46.90
2019-05-06T18:21:32.081Z,47.30
2019-05-06T18:24:02.824Z,47.70
2019-05-06T18:26:32.771Z,47.70
2019-05-06T18:29:01.183Z,48.30
2019-05-06T18:31:29.668Z,48.60
2019-05-06T18:33:58.131Z,48.90
2019-05-06T18:36:26.578Z,48.80
2019-05-06T18:38:55.109Z,48.00
2019-05-06T18:41:23.738Z,47.30
2019-05-06T18:43:53.461Z,46.50
2019-05-06T18:46:22.204Z,46.50
2019-05-06T18:48:52.491Z,47.20
2019-05-06T18:51:22.405Z,48.30
2019-05-06T18:53:52.444Z,48.90
2019-05-06T18:56:22.372Z,50.00
2019-05-06T18:58:52.972Z,50.40
2019-05-06T19:01:23.253Z,51.00
2019-05-06T19:03:53.347Z,51.30
2019-05-06T19:06:23.198Z,51.00
2019-05-06T19:08:56.019Z,51.80
2019-05-06T19:11:25.251Z,52.00
2019-05-06T19:13:53.806Z,52.50
2019-05-06T19:16:22.456Z,52.70
2019-05-06T19:18:52.245Z,52.30
2019-05-06T19:21:24.254Z,52.60
2019-05-06T19:23:51.940Z,53.00
2019-05-06T19:26:21.434Z,54.40
2019-05-06T19:28:49.973Z,54.10
2019-05-06T19:31:18.506Z,54.10
2019-05-06T19:33:47.065Z,54.50
2019-05-06T19:36:15.685Z,54.40
2019-05-06T19:38:44.223Z,55.60
2019-05-06T19:41:12.918Z,56.20
2019-05-06T19:43:41.613Z,56.60
2019-05-06T19:46:11.965Z,57.10
2019-05-06T19:48:40.271Z,57.60
2019-05-06T19:51:08.729Z,57.60
2019-05-06T19:53:37.184Z,58.80
2019-05-06T19:56:05.789Z,57.10
2019-05-06T19:58:34.356Z,56.70
2019-05-06T20:01:04.735Z,61.30
2019-05-06T20:03:33.243Z,60.00
2019-05-06T20:06:03.437Z,59.70
2019-05-06T20:08:36.403Z,60.90
2019-05-06T20:11:13.102Z,63.30
2019-05-06T20:13:41.876Z,64.10
2019-05-06T20:16:12.386Z,64.70
2019-05-06T20:18:42.590Z,65.70
2019-05-06T20:21:11.351Z,66.50
2019-05-06T20:23:39.806Z,67.00
2019-05-06T20:26:08.435Z,67.60
2019-05-06T20:28:36.979Z,66.10
2019-05-06T20:31:05.526Z,65.60
2019-05-06T20:33:34.058Z,66.60
2019-05-06T20:36:02.544Z,67.90
2019-05-06T20:38:30.980Z,71.10
2019-05-06T20:40:59.446Z,70.10
2019-05-06T20:43:28.016Z,70.50
2019-05-06T20:45:56.674Z,71.50
2019-05-06T20:48:25.116Z,73.10
2019-05-06T20:50:53.765Z,74.00
2019-05-06T20:53:26.619Z,73.50
2019-05-06T20:55:56.346Z,73.30
2019-05-06T20:58:24.778Z,75.00
2019-05-06T21:00:53.244Z,71.00
2019-05-06T21:03:22.261Z,68.80
2019-05-06T21:05:50.951Z,71.10
2019-05-06T21:08:19.538Z,70.40
2019-05-06T21:10:49.886Z,72.30
2019-05-06T21:13:29.647Z,75.20
2019-05-06T21:15:48.492Z,75.50
2019-05-06T21:18:23.056Z,76.50
2019-05-06T21:20:51.652Z,76.30
2019-05-06T21:23:22.520Z,77.30
2019-05-06T21:25:52.381Z,80.30
2019-05-06T21:28:20.695Z,79.60
2019-05-06T21:30:49.219Z,80.30
2019-05-06T21:33:17.689Z,82.20
2019-05-06T21:35:48.756Z,82.30
2019-05-06T21:38:16.331Z,83.40
2019-05-06T21:40:44.777Z,83.50
2019-05-06T21:43:13.357Z,85.90
2019-05-06T21:45:42.488Z,86.90
2019-05-06T21:48:13.404Z,86.40
2019-05-06T21:50:42.651Z,86.90
2019-05-06T21:53:14.282Z,87.50
2019-05-06T21:55:41.566Z,87.20
2019-05-06T21:58:12.259Z,89.40
2019-05-06T22:00:54.008Z,89.40
2019-05-06T22:03:32.650Z,89.30
2019-05-06T22:06:10.041Z,88.40
2019-05-06T22:08:38.520Z,89.70
2019-05-06T22:11:07.030Z,90.00
2019-05-06T22:13:35.593Z,90.60
2019-05-06T22:16:04.881Z,90.70
2019-05-06T22:18:33.517Z,90.70
2019-05-06T22:21:15.394Z,90.30
2019-05-06T22:24:04.723Z,90.70
2019-05-06T22:26:33.664Z,90.60
2019-05-06T22:29:02.322Z,90.90
2019-05-06T22:31:32.839Z,91.30
2019-05-06T22:34:01.081Z,91.30
2019-05-06T22:36:29.535Z,91.60
2019-05-06T22:38:59.760Z,91.40
2019-05-06T22:41:28.275Z,91.00
2019-05-06T22:43:56.739Z,90.70
2019-05-06T22:46:25.203Z,91.00
2019-05-06T22:48:54.525Z,91.40
2019-05-06T22:51:23.522Z,91.80
2019-05-06T22:53:53.285Z,91.80
2019-05-06T22:56:26.742Z,91.60
2019-05-06T22:58:55.317Z,91.20
2019-05-06T23:01:34.289Z,91.30
2019-05-06T23:04:02.907Z,91.10
2019-05-06T23:06:32.987Z,91.00
2019-05-06T23:09:02.567Z,91.10
2019-05-06T23:11:32.909Z,90.80
2019-05-06T23:14:02.777Z,91.10
2019-05-06T23:16:34.584Z,91.40
2019-05-06T23:19:02.188Z,91.70
2019-05-06T23:21:33.465Z,91.30
2019-05-06T23:24:02.165Z,91.60
2019-05-06T23:26:30.830Z,91.90
2019-05-06T23:28:59.272Z,92.20
2019-05-06T23:31:27.833Z,92.30
2019-05-06T23:33:56.351Z,92.80
2019-05-06T23:36:24.853Z,92.50
2019-05-06T23:39:32.202Z,92.70
2019-05-06T23:42:36.422Z,93.10
2019-05-06T23:45:41.258Z,92.90
2019-05-06T23:48:46.160Z,92.40
2019-05-06T23:51:53.162Z,92.60
2019-05-06T23:54:58.277Z,92.70
2019-05-06T23:57:25.776Z,92.90
2019-05-06T23:59:54.641Z,92.80
